createdAt,value
2022-11-15T00:02:14.984Z,3.12
2022-11-15T00:05:01.541Z,3.09
2022-11-15T00:07:56.168Z,3.06
2022-11-15T00:10:43.350Z,3.03
2022-11-15T00:13:29.994Z,3.02
2022-11-15T00:16:16.257Z,3.02
2022-11-15T00:19:02.048Z,3.03
2022-11-15T00:21:47.928Z,3.03
2022-11-15T00:24:34.013Z,3.03
2022-11-15T00:27:20.828Z,3.04
2022-11-15T00:30:07.322Z,3.04
2022-11-15T00:32:53.831Z,3.04
2022-11-15T00:35:40.327Z,3.03
2022-11-15T00:38:26.119Z,3.02
2022-11-15T00:41:12.434Z,3.01
2022-11-15T00:43:58.487Z,3.00
2022-11-15T00:46:44.289Z,3.00
2022-11-15T00:49:29.873Z,2.99
2022-11-15T00:52:15.657Z,2.97
2022-11-15T00:55:01.572Z,2.95
2022-11-15T00:57:48.876Z,2.94
2022-11-15T01:00:35.101Z,2.94
2022-11-15T01:03:20.968Z,2.95
2022-11-15T01:06:07.659Z,2.95
2022-11-15T01:08:53.448Z,2.96
2022-11-15T01:11:39.644Z,2.96
2022-11-15T01:14:25.858Z,2.97
2022-11-15T01:17:12.868Z,2.97
2022-11-15T01:19:58.967Z,2.96
2022-11-15T01:22:44.938Z,2.95
2022-11-15T01:25:31.047Z,2.95
2022-11-15T01:28:17.032Z,2.94
2022-11-15T01:31:04.351Z,2.93
2022-11-15T01:33:50.449Z,2.93
2022-11-15T01:36:36.230Z,2.93
2022-11-15T01:39:22.231Z,2.92
2022-11-15T01:42:13.823Z,2.92
2022-11-15T01:44:59.824Z,2.89
2022-11-15T01:47:54.832Z,2.86
2022-11-15T01:50:40.928Z,2.83
2022-11-15T01:53:28.200Z,2.80
2022-11-15T01:56:18.746Z,2.77
2022-11-15T01:59:07.928Z,2.74
2022-11-15T02:01:53.852Z,2.71
2022-11-15T02:04:43.283Z,2.70
2022-11-15T02:07:30.026Z,2.68
2022-11-15T02:10:20.193Z,2.67
2022-11-15T02:13:06.467Z,2.63
2022-11-15T02:16:36.795Z,2.60
2022-11-15T02:19:34.894Z,2.56
2022-11-15T02:23:01.206Z,2.52
2022-11-15T02:26:15.067Z,2.48
2022-11-15T02:29:11.919Z,2.47
2022-11-15T02:32:04.972Z,2.45
2022-11-15T02:35:34.916Z,2.43
2022-11-15T02:38:43.085Z,2.41
2022-11-15T02:41:31.879Z,2.38
2022-11-15T02:44:26.671Z,2.35
2022-11-15T02:47:17.572Z,2.33
2022-11-15T02:50:10.117Z,2.31
2022-11-15T02:52:57.332Z,2.31
2022-11-15T02:55:46.182Z,2.31
2022-11-15T02:58:54.075Z,2.30
2022-11-15T03:02:04.006Z,2.25
2022-11-15T03:04:50.647Z,2.19
2022-11-15T03:08:01.877Z,2.17
2022-11-15T03:11:01.749Z,2.13
2022-11-15T03:14:05.648Z,2.11
2022-11-15T03:17:25.835Z,2.10
2022-11-15T03:20:13.788Z,2.08
2022-11-15T03:23:08.022Z,2.04
2022-11-15T03:25:55.025Z,2.00
2022-11-15T03:28:45.840Z,1.95
2022-11-15T03:31:50.888Z,1.90
2022-11-15T03:34:49.808Z,1.87
2022-11-15T03:37:42.184Z,1.84
2022-11-15T03:40:37.283Z,1.82
2022-11-15T03:43:42.910Z,1.79
2022-11-15T03:46:40.006Z,1.76
2022-11-15T03:49:37.170Z,1.72
2022-11-15T03:52:23.527Z,1.68
2022-11-15T03:55:12.952Z,1.64
2022-11-15T03:58:01.128Z,1.61
2022-11-15T04:00:47.151Z,1.58
2022-11-15T04:03:33.122Z,1.56
2022-11-15T04:06:21.538Z,1.52
2022-11-15T04:09:07.350Z,1.50
2022-11-15T04:11:53.353Z,1.48
2022-11-15T04:14:59.512Z,1.47
2022-11-15T04:17:48.031Z,1.45
2022-11-15T04:20:52.468Z,1.44
2022-11-15T04:24:07.743Z,1.42
2022-11-15T04:26:53.627Z,1.41
2022-11-15T04:29:39.527Z,1.39
2022-11-15T04:32:25.431Z,1.37
2022-11-15T04:35:11.515Z,1.35
2022-11-15T04:37:58.129Z,1.34
2022-11-15T04:40:44.008Z,1.31
2022-11-15T04:43:30.918Z,1.30
2022-11-15T04:46:16.914Z,1.30
2022-11-15T04:49:04.028Z,1.29
2022-11-15T04:51:50.028Z,1.28
2022-11-15T04:54:35.898Z,1.26
2022-11-15T04:57:22.011Z,1.26
2022-11-15T05:00:11.006Z,1.26
2022-11-15T05:03:17.047Z,1.24
2022-11-15T05:06:03.208Z,1.21
2022-11-15T05:08:49.946Z,1.19
2022-11-15T05:11:35.801Z,1.18
2022-11-15T05:14:24.058Z,1.19
2022-11-15T05:17:09.628Z,1.21
2022-11-15T05:19:55.930Z,1.22
2022-11-15T05:22:42.082Z,1.22
2022-11-15T05:25:28.131Z,1.20
2022-11-15T05:28:14.719Z,1.19
2022-11-15T05:31:04.702Z,1.17
2022-11-15T05:33:53.119Z,1.16
2022-11-15T05:36:47.176Z,1.16
2022-11-15T05:39:33.128Z,1.18
2022-11-15T05:42:20.469Z,1.18
2022-11-15T05:45:08.327Z,1.17
2022-11-15T05:47:55.764Z,1.17
2022-11-15T05:50:43.912Z,1.16
2022-11-15T05:53:30.082Z,1.16
2022-11-15T05:56:16.543Z,1.17
2022-11-15T05:59:02.539Z,1.18
2022-11-15T06:01:48.200Z,1.20
2022-11-15T06:04:34.231Z,1.18
2022-11-15T06:07:20.419Z,1.17
2022-11-15T06:10:07.319Z,1.16
2022-11-15T06:13:00.389Z,1.13
2022-11-15T06:15:46.575Z,1.11
2022-11-15T06:18:36.269Z,1.09
2022-11-15T06:21:23.169Z,1.06
2022-11-15T06:24:10.228Z,1.03
2022-11-15T06:26:56.879Z,0.99
2022-11-15T06:29:43.308Z,0.94
2022-11-15T06:32:31.879Z,0.89
2022-11-15T06:35:17.935Z,0.84
2022-11-15T06:38:09.152Z,0.83
2022-11-15T06:40:55.442Z,0.86
2022-11-15T06:43:42.071Z,0.91
2022-11-15T06:46:27.833Z,0.97
2022-11-15T06:49:13.928Z,1.04
2022-11-15T06:51:59.929Z,1.09
2022-11-15T06:54:46.001Z,1.14
2022-11-15T06:57:31.718Z,1.20
2022-11-15T07:00:19.467Z,1.24
2022-11-15T07:03:05.629Z,1.29
2022-11-15T07:05:56.022Z,1.33
2022-11-15T07:08:43.253Z,1.38
2022-11-15T07:11:29.125Z,1.42
2022-11-15T07:14:14.929Z,1.49
2022-11-15T07:17:00.901Z,1.54
2022-11-15T07:19:46.897Z,1.61
2022-11-15T07:22:32.791Z,1.68
2022-11-15T07:25:18.780Z,1.74
2022-11-15T07:28:05.075Z,1.81
2022-11-15T07:30:50.975Z,1.89
2022-11-15T07:33:37.779Z,1.97
2022-11-15T07:36:23.468Z,2.05
2022-11-15T07:39:09.760Z,2.13
2022-11-15T07:42:15.531Z,2.22
2022-11-15T07:45:01.189Z,2.33
2022-11-15T07:47:48.557Z,2.45
2022-11-15T07:50:34.603Z,2.56
2022-11-15T07:53:20.711Z,2.66
2022-11-15T07:56:09.868Z,2.76
2022-11-15T07:58:55.553Z,2.86
2022-11-15T08:01:42.971Z,2.94
2022-11-15T08:04:28.870Z,3.00
2022-11-15T08:07:14.895Z,3.06
2022-11-15T08:10:02.509Z,3.14
2022-11-15T08:12:47.938Z,3.22
2022-11-15T08:15:35.137Z,3.31
2022-11-15T08:18:21.274Z,3.41
2022-11-15T08:21:07.479Z,3.51
2022-11-15T08:23:55.431Z,3.62
2022-11-15T08:26:41.118Z,3.72
2022-11-15T08:29:27.810Z,3.82
2022-11-15T08:32:13.892Z,3.90
2022-11-15T08:35:01.317Z,3.99
2022-11-15T08:37:46.899Z,4.10
2022-11-15T08:40:41.801Z,4.21
2022-11-15T08:43:27.682Z,4.33
2022-11-15T08:46:15.108Z,4.46
2022-11-15T08:49:00.901Z,4.57
2022-11-15T08:51:47.096Z,4.68
2022-11-15T08:54:33.397Z,4.77
2022-11-15T08:57:19.392Z,4.88
2022-11-15T09:00:07.478Z,4.98
2022-11-15T09:02:53.517Z,5.07
2022-11-15T09:05:39.313Z,5.17
2022-11-15T09:08:46.503Z,5.26
2022-11-15T09:11:32.887Z,5.37
2022-11-15T09:14:19.011Z,5.48
2022-11-15T09:17:08.367Z,5.58
2022-11-15T09:19:54.350Z,5.68
2022-11-15T09:22:40.549Z,5.79
2022-11-15T09:25:27.870Z,5.88
2022-11-15T09:28:13.451Z,5.98
2022-11-15T09:31:00.690Z,6.07
2022-11-15T09:33:47.191Z,6.16
2022-11-15T09:36:32.862Z,6.26
2022-11-15T09:39:18.745Z,6.36
2022-11-15T09:42:13.819Z,6.46
2022-11-15T09:45:15.032Z,6.57
2022-11-15T09:48:28.488Z,6.69
2022-11-15T09:51:47.998Z,6.79
2022-11-15T09:57:41.553Z,6.99
2022-11-15T10:03:27.617Z,7.20
2022-11-15T10:05:58.477Z,7.30
2022-11-15T10:08:36.085Z,7.40
2022-11-15T10:13:58.302Z,7.64
2022-11-15T10:17:02.506Z,7.75
2022-11-15T10:19:36.825Z,7.86
2022-11-15T10:22:12.775Z,7.96
2022-11-15T10:24:43.525Z,8.05
2022-11-15T10:27:18.542Z,8.13
2022-11-15T10:29:47.642Z,8.20
2022-11-15T10:32:17.356Z,8.26
2022-11-15T10:34:45.130Z,8.33
2022-11-15T10:37:12.678Z,8.40
2022-11-15T10:39:40.464Z,8.48
2022-11-15T10:42:31.491Z,8.54
2022-11-15T10:44:58.697Z,8.61
2022-11-15T10:47:37.784Z,8.68
2022-11-15T10:50:27.511Z,8.77
2022-11-15T10:52:55.172Z,8.85
2022-11-15T10:55:26.575Z,8.93
2022-11-15T10:57:56.730Z,9.01
2022-11-15T11:00:31.502Z,9.08
2022-11-15T11:03:02.115Z,9.14
2022-11-15T11:05:41.339Z,9.20
2022-11-15T11:08:12.682Z,9.28
2022-11-15T11:11:01.419Z,9.35
2022-11-15T11:13:30.531Z,9.40
2022-11-15T11:16:25.933Z,9.46
2022-11-15T11:19:26.587Z,9.52
2022-11-15T11:22:14.809Z,9.58
2022-11-15T11:25:00.704Z,9.64
2022-11-15T11:27:38.951Z,9.70
2022-11-15T11:30:26.536Z,9.77
2022-11-15T11:33:08.025Z,9.85
2022-11-15T11:36:16.858Z,9.92
2022-11-15T11:38:49.973Z,10.00
2022-11-15T11:41:55.692Z,10.05
2022-11-15T11:44:50.898Z,10.11
2022-11-15T11:47:26.039Z,10.17
2022-11-15T11:49:55.151Z,10.22
2022-11-15T11:52:36.515Z,10.26
2022-11-15T11:55:30.089Z,10.29
2022-11-15T11:58:11.579Z,10.34
2022-11-15T12:00:48.690Z,10.38
2022-11-15T12:03:25.737Z,10.43
2022-11-15T12:05:59.245Z,10.47
2022-11-15T12:08:33.803Z,10.51
2022-11-15T12:11:07.452Z,10.55
2022-11-15T12:13:38.095Z,10.59
2022-11-15T12:16:11.221Z,10.63
2022-11-15T12:18:39.471Z,10.68
2022-11-15T12:21:28.280Z,10.72
2022-11-15T12:24:01.880Z,10.76
2022-11-15T12:26:43.510Z,10.78
2022-11-15T12:29:18.856Z,10.82
2022-11-15T12:31:53.481Z,10.86
2022-11-15T12:34:26.259Z,10.90
2022-11-15T12:36:53.509Z,10.94
2022-11-15T12:39:21.073Z,10.98
2022-11-15T12:42:00.510Z,11.00
2022-11-15T12:44:33.374Z,11.03
2022-11-15T12:47:05.453Z,11.06
2022-11-15T12:49:35.457Z,11.10
2022-11-15T12:52:02.628Z,11.13
2022-11-15T12:54:51.370Z,11.15
2022-11-15T12:57:18.428Z,11.18
2022-11-15T12:59:56.518Z,11.19
2022-11-15T13:02:25.724Z,11.22
2022-11-15T13:04:55.912Z,11.24
2022-11-15T13:07:41.716Z,11.27
2022-11-15T13:10:15.052Z,11.29
2022-11-15T13:12:45.268Z,11.31
2022-11-15T13:15:18.420Z,11.32
2022-11-15T13:17:56.259Z,11.32
2022-11-15T13:20:32.183Z,11.34
2022-11-15T13:23:16.353Z,11.35
2022-11-15T13:26:08.320Z,11.36
2022-11-15T13:28:46.475Z,11.38
2022-11-15T13:31:27.568Z,11.39
2022-11-15T13:33:57.802Z,11.41
2022-11-15T13:36:35.601Z,11.42
2022-11-15T13:39:30.340Z,11.43
2022-11-15T13:41:58.032Z,11.44
2022-11-15T13:44:28.451Z,11.45
2022-11-15T13:47:05.007Z,11.47
2022-11-15T13:49:33.913Z,11.48
2022-11-15T13:52:03.438Z,11.48
2022-11-15T13:54:42.119Z,11.49
2022-11-15T13:57:25.582Z,11.49
2022-11-15T13:59:54.888Z,11.50
2022-11-15T14:02:39.318Z,11.50
2022-11-15T14:05:17.219Z,11.50
2022-11-15T14:08:05.773Z,11.49
2022-11-15T14:10:38.764Z,11.47
2022-11-15T14:13:31.203Z,11.44
2022-11-15T14:16:22.106Z,11.39
2022-11-15T14:18:51.368Z,11.35
2022-11-15T14:21:19.996Z,11.32
2022-11-15T14:23:47.657Z,11.28
2022-11-15T14:26:29.660Z,11.24
2022-11-15T14:28:57.222Z,11.19
2022-11-15T14:31:24.570Z,11.15
2022-11-15T14:33:51.928Z,11.09
2022-11-15T14:36:21.098Z,11.03
2022-11-15T14:38:49.046Z,10.98
2022-11-15T14:41:25.313Z,10.92
2022-11-15T14:43:53.417Z,10.86
2022-11-15T14:46:20.687Z,10.79
2022-11-15T14:48:47.823Z,10.73
2022-11-15T14:51:18.248Z,10.67
2022-11-15T14:53:46.434Z,10.60
2022-11-15T14:56:14.216Z,10.55
2022-11-15T14:58:41.838Z,10.48
2022-11-15T15:01:19.596Z,10.42
2022-11-15T15:03:46.808Z,10.33
2022-11-15T15:06:18.043Z,10.22
2022-11-15T15:08:47.140Z,10.13
2022-11-15T15:11:18.090Z,10.03
2022-11-15T15:13:45.229Z,9.95
2022-11-15T15:16:12.387Z,9.89
2022-11-15T15:18:39.540Z,9.82
2022-11-15T15:21:22.390Z,9.74
2022-11-15T15:23:49.593Z,9.65
2022-11-15T15:26:17.259Z,9.57
2022-11-15T15:28:44.704Z,9.51
2022-11-15T15:31:12.271Z,9.44
2022-11-15T15:33:39.729Z,9.37
2022-11-15T15:36:09.679Z,9.30
2022-11-15T15:38:36.986Z,9.25
2022-11-15T15:41:05.068Z,9.20
2022-11-15T15:43:32.218Z,9.15
2022-11-15T15:46:00.106Z,9.11
2022-11-15T15:48:27.430Z,9.05
2022-11-15T15:50:55.207Z,8.99
2022-11-15T15:53:22.557Z,8.96
2022-11-15T15:55:49.801Z,8.92
2022-11-15T15:58:17.045Z,8.88
2022-11-15T16:00:44.193Z,8.81
2022-11-15T16:03:11.551Z,8.75
2022-11-15T16:05:39.333Z,8.67
2022-11-15T16:08:06.667Z,8.58
2022-11-15T16:10:38.161Z,8.50
2022-11-15T16:13:06.646Z,8.44
2022-11-15T16:15:34.262Z,8.37
2022-11-15T16:18:03.771Z,8.31
2022-11-15T16:20:53.757Z,8.25
2022-11-15T16:23:23.767Z,8.20
2022-11-15T16:25:55.739Z,8.16
2022-11-15T16:28:24.863Z,8.11
2022-11-15T16:31:02.019Z,8.08
2022-11-15T16:33:30.879Z,8.05
2022-11-15T16:35:58.775Z,8.03
2022-11-15T16:38:27.349Z,8.00
2022-11-15T16:40:54.921Z,7.95
2022-11-15T16:43:23.190Z,7.90
2022-11-15T16:45:53.011Z,7.85
2022-11-15T16:48:28.698Z,7.80
2022-11-15T16:51:01.735Z,7.76
2022-11-15T16:53:29.184Z,7.71
2022-11-15T16:55:57.552Z,7.68
2022-11-15T16:58:26.188Z,7.63
2022-11-15T17:00:56.575Z,7.60
2022-11-15T17:03:25.486Z,7.54
2022-11-15T17:05:53.348Z,7.48
2022-11-15T17:08:22.663Z,7.42
2022-11-15T17:10:49.913Z,7.38
2022-11-15T17:13:17.766Z,7.35
2022-11-15T17:15:45.928Z,7.31
2022-11-15T17:18:16.063Z,7.27
2022-11-15T17:20:48.414Z,7.23
2022-11-15T17:23:17.060Z,7.18
2022-11-15T17:25:44.977Z,7.15
2022-11-15T17:28:13.146Z,7.12
2022-11-15T17:30:46.125Z,7.10
2022-11-15T17:33:26.497Z,7.07
2022-11-15T17:36:07.837Z,7.03
2022-11-15T17:38:36.605Z,7.00
2022-11-15T17:41:19.268Z,6.97
2022-11-15T17:43:47.561Z,6.93
2022-11-15T17:46:18.097Z,6.90
2022-11-15T17:48:47.823Z,6.85
2022-11-15T17:51:16.792Z,6.80
2022-11-15T17:53:49.047Z,6.75
2022-11-15T17:56:18.930Z,6.69
2022-11-15T17:58:55.138Z,6.61
2022-11-15T18:01:35.231Z,6.55
2022-11-15T18:04:29.416Z,6.48
2022-11-15T18:06:57.210Z,6.40
2022-11-15T18:09:26.433Z,6.36
2022-11-15T18:11:54.911Z,6.31
2022-11-15T18:14:24.052Z,6.22
2022-11-15T18:16:53.699Z,6.13
2022-11-15T18:19:21.056Z,6.07
2022-11-15T18:21:58.357Z,6.03
2022-11-15T18:24:36.178Z,5.99
2022-11-15T18:27:06.770Z,5.93
2022-11-15T18:29:38.539Z,5.88
2022-11-15T18:32:12.755Z,5.85
2022-11-15T18:34:40.314Z,5.83
2022-11-15T18:37:11.806Z,5.77
2022-11-15T18:39:40.935Z,5.71
2022-11-15T18:42:11.478Z,5.68
2022-11-15T18:44:39.143Z,5.65
2022-11-15T18:47:06.616Z,5.61
2022-11-15T18:49:35.409Z,5.59
2022-11-15T18:52:06.469Z,5.57
2022-11-15T18:54:35.028Z,5.57
2022-11-15T18:57:02.276Z,5.57
2022-11-15T18:59:30.548Z,5.56
2022-11-15T19:01:58.432Z,5.54
2022-11-15T19:04:29.651Z,5.53
2022-11-15T19:06:58.469Z,5.51
2022-11-15T19:09:32.468Z,5.52
2022-11-15T19:11:59.907Z,5.52
2022-11-15T19:14:28.516Z,5.53
2022-11-15T19:16:57.699Z,5.53
2022-11-15T19:19:28.060Z,5.55
2022-11-15T19:21:56.900Z,5.57
2022-11-15T19:24:26.049Z,5.61
2022-11-15T19:26:53.772Z,5.66
2022-11-15T19:29:21.730Z,5.72
2022-11-15T19:31:49.912Z,5.79
2022-11-15T19:34:18.976Z,5.84
2022-11-15T19:36:49.511Z,5.90
2022-11-15T19:39:19.434Z,5.93
2022-11-15T19:41:48.773Z,5.94
2022-11-15T19:44:16.932Z,5.91
2022-11-15T19:46:45.291Z,5.86
2022-11-15T19:49:13.170Z,5.81
2022-11-15T19:51:42.917Z,5.75
2022-11-15T19:54:11.773Z,5.66
2022-11-15T19:56:40.723Z,5.58
2022-11-15T19:59:10.826Z,5.53
2022-11-15T20:01:40.151Z,5.51
2022-11-15T20:04:08.969Z,5.53
2022-11-15T20:06:41.654Z,5.58
2022-11-15T20:09:13.401Z,5.64
2022-11-15T20:11:41.286Z,5.68
2022-11-15T20:14:13.541Z,5.71
2022-11-15T20:16:42.107Z,5.75
2022-11-15T20:19:09.947Z,5.79
2022-11-15T20:21:37.432Z,5.81
2022-11-15T20:24:06.628Z,5.80
2022-11-15T20:26:34.703Z,5.80
2022-11-15T20:29:06.990Z,5.78
2022-11-15T20:31:35.988Z,5.77
2022-11-15T20:34:04.239Z,5.78
2022-11-15T20:36:32.193Z,5.78
2022-11-15T20:39:00.637Z,5.80
2022-11-15T20:41:29.290Z,5.83
2022-11-15T20:43:57.149Z,5.87
2022-11-15T20:46:24.806Z,5.89
2022-11-15T20:48:52.687Z,5.91
2022-11-15T20:51:20.898Z,5.91
2022-11-15T20:53:49.282Z,5.91
2022-11-15T20:56:20.500Z,5.92
2022-11-15T20:58:51.208Z,5.91
2022-11-15T21:01:23.967Z,5.91
2022-11-15T21:03:55.940Z,5.92
2022-11-15T21:06:24.197Z,5.94
2022-11-15T21:09:11.222Z,5.96
2022-11-15T21:11:58.136Z,6.00
2022-11-15T21:14:25.611Z,6.05
2022-11-15T21:16:53.570Z,6.08
2022-11-15T21:19:26.660Z,6.11
2022-11-15T21:21:57.187Z,6.14
2022-11-15T21:24:25.274Z,6.15
2022-11-15T21:26:54.680Z,6.17
2022-11-15T21:29:22.088Z,6.18
2022-11-15T21:31:51.110Z,6.19
2022-11-15T21:34:18.764Z,6.20
2022-11-15T21:36:46.321Z,6.18
2022-11-15T21:39:13.586Z,6.14
2022-11-15T21:41:40.848Z,6.10
2022-11-15T21:44:08.288Z,6.09
2022-11-15T21:46:37.590Z,6.07
2022-11-15T21:49:06.291Z,6.02
2022-11-15T21:51:34.172Z,5.97
2022-11-15T21:54:02.130Z,5.93
2022-11-15T21:56:30.388Z,5.89
2022-11-15T21:58:57.849Z,5.87
2022-11-15T22:01:45.009Z,5.87
2022-11-15T22:04:13.434Z,5.84
2022-11-15T22:06:40.816Z,5.82
2022-11-15T22:09:08.354Z,5.81
2022-11-15T22:11:36.032Z,5.79
2022-11-15T22:14:03.477Z,5.75
2022-11-15T22:16:31.743Z,5.73
2022-11-15T22:18:59.609Z,5.73
2022-11-15T22:21:26.770Z,5.75
2022-11-15T22:23:54.430Z,5.76
2022-11-15T22:26:23.752Z,5.76
2022-11-15T22:28:52.024Z,5.75
2022-11-15T22:31:19.479Z,5.73
2022-11-15T22:33:47.029Z,5.72
2022-11-15T22:36:17.250Z,5.72
2022-11-15T22:38:45.729Z,5.72
2022-11-15T22:41:13.064Z,5.71
2022-11-15T22:43:41.870Z,5.69
2022-11-15T22:46:10.031Z,5.67
2022-11-15T22:48:39.125Z,5.65
2022-11-15T22:51:07.372Z,5.64
2022-11-15T22:53:35.592Z,5.65
2022-11-15T22:56:05.484Z,5.65
2022-11-15T22:58:34.670Z,5.65
2022-11-15T23:01:05.838Z,5.63
2022-11-15T23:03:34.012Z,5.60
2022-11-15T23:06:03.611Z,5.59
2022-11-15T23:08:31.179Z,5.57
2022-11-15T23:11:21.881Z,5.57
2022-11-15T23:13:52.153Z,5.55
2022-11-15T23:16:47.197Z,5.54
2022-11-15T23:19:14.664Z,5.52
2022-11-15T23:22:02.901Z,5.51
2022-11-15T23:24:31.578Z,5.51
2022-11-15T23:27:04.875Z,5.52
2022-11-15T23:29:32.556Z,5.53
2022-11-15T23:32:19.155Z,5.54
2022-11-15T23:34:46.796Z,5.56
2022-11-15T23:37:16.407Z,5.57
2022-11-15T23:39:43.679Z,5.59
2022-11-15T23:42:20.960Z,5.60
2022-11-15T23:44:51.016Z,5.60
2022-11-15T23:47:19.461Z,5.60
2022-11-15T23:49:46.702Z,5.60
2022-11-15T23:52:15.747Z,5.61
2022-11-15T23:54:43.244Z,5.60
2022-11-15T23:57:12.530Z,5.58
2022-11-15T23:59:44.411Z,5.59
